sensor_id;sensor_type;location;lat;lon;timestamp;P1;durP1;ratioP1;P2;durP2;ratioP2
30543;SDS011;43388;46.308;4.600;2023-06-22T00:02:13;17.95;;;8.15;;
30543;SDS011;43388;46.308;4.600;2023-06-22T00:04:39;12.82;;;8.80;;
30543;SDS011;43388;46.308;4.600;2023-06-22T00:07:05;14.73;;;8.95;;
30543;SDS011;43388;46.308;4.600;2023-06-22T00:09:31;13.68;;;7.88;;
30543;SDS011;43388;46.308;4.600;2023-06-22T00:11:58;12.40;;;8.10;;
30543;SDS011;43388;46.308;4.600;2023-06-22T00:14:24;13.82;;;8.07;;
30543;SDS011;43388;46.308;4.600;2023-06-22T00:16:50;19.80;;;8.45;;
30543;SDS011;43388;46.308;4.600;2023-06-22T00:19:20;17.55;;;8.20;;
30543;SDS011;43388;46.308;4.600;2023-06-22T00:21:47;24.33;;;8.05;;
30543;SDS011;43388;46.308;4.600;2023-06-22T00:24:17;13.70;;;8.02;;
30543;SDS011;43388;46.308;4.600;2023-06-22T00:26:44;10.88;;;7.70;;
30543;SDS011;43388;46.308;4.600;2023-06-22T00:29:10;14.88;;;9.13;;
30543;SDS011;43388;46.308;4.600;2023-06-22T00:31:36;13.57;;;7.82;;
30543;SDS011;43388;46.308;4.600;2023-06-22T00:34:02;13.88;;;8.27;;
30543;SDS011;43388;46.308;4.600;2023-06-22T00:36:28;15.50;;;7.72;;
30543;SDS011;43388;46.308;4.600;2023-06-22T00:38:54;16.90;;;8.38;;
30543;SDS011;43388;46.308;4.600;2023-06-22T00:41:20;10.65;;;7.95;;
30543;SDS011;43388;46.308;4.600;2023-06-22T00:43:46;13.65;;;7.50;;
30543;SDS011;43388;46.308;4.600;2023-06-22T00:46:12;13.98;;;7.57;;
30543;SDS011;43388;46.308;4.600;2023-06-22T00:48:38;20.50;;;8.15;;
30543;SDS011;43388;46.308;4.600;2023-06-22T00:51:06;13.32;;;7.78;;
30543;SDS011;43388;46.308;4.600;2023-06-22T00:53:32;13.43;;;7.28;;
30543;SDS011;43388;46.308;4.600;2023-06-22T00:56:00;15.90;;;8.00;;
30543;SDS011;43388;46.308;4.600;2023-06-22T00:58:28;11.43;;;7.90;;
30543;SDS011;43388;46.308;4.600;2023-06-22T01:00:54;16.80;;;7.82;;
30543;SDS011;43388;46.308;4.600;2023-06-22T01:03:20;14.73;;;8.73;;
30543;SDS011;43388;46.308;4.600;2023-06-22T01:05:46;14.18;;;8.32;;
30543;SDS011;43388;46.308;4.600;2023-06-22T01:08:33;12.50;;;7.03;;
30543;SDS011;43388;46.308;4.600;2023-06-22T01:14:07;11.02;;;7.30;;
30543;SDS011;43388;46.308;4.600;2023-06-22T01:16:37;13.15;;;7.80;;
30543;SDS011;43388;46.308;4.600;2023-06-22T01:19:50;15.18;;;8.07;;
30543;SDS011;43388;46.308;4.600;2023-06-22T01:21:51;12.48;;;7.03;;
30543;SDS011;43388;46.308;4.600;2023-06-22T01:24:20;14.10;;;7.55;;
30543;SDS011;43388;46.308;4.600;2023-06-22T01:27:00;16.50;;;8.02;;
30543;SDS011;43388;46.308;4.600;2023-06-22T01:29:31;13.13;;;7.70;;
30543;SDS011;43388;46.308;4.600;2023-06-22T01:31:59;12.88;;;7.38;;
30543;SDS011;43388;46.308;4.600;2023-06-22T01:34:26;17.17;;;7.65;;
30543;SDS011;43388;46.308;4.600;2023-06-22T01:36:53;13.40;;;7.18;;
30543;SDS011;43388;46.308;4.600;2023-06-22T01:39:19;17.23;;;7.47;;
30543;SDS011;43388;46.308;4.600;2023-06-22T01:41:47;15.35;;;7.28;;
30543;SDS011;43388;46.308;4.600;2023-06-22T01:44:13;14.15;;;8.13;;
30543;SDS011;43388;46.308;4.600;2023-06-22T01:46:39;14.13;;;7.70;;
30543;SDS011;43388;46.308;4.600;2023-06-22T01:49:05;16.05;;;7.10;;
30543;SDS011;43388;46.308;4.600;2023-06-22T01:51:32;10.23;;;7.88;;
30543;SDS011;43388;46.308;4.600;2023-06-22T01:53:58;14.95;;;7.75;;
30543;SDS011;43388;46.308;4.600;2023-06-22T01:56:24;12.65;;;7.93;;
30543;SDS011;43388;46.308;4.600;2023-06-22T01:58:57;9.68;;;7.43;;
30543;SDS011;43388;46.308;4.600;2023-06-22T02:01:27;10.60;;;7.15;;
30543;SDS011;43388;46.308;4.600;2023-06-22T02:04:01;15.00;;;7.28;;
30543;SDS011;43388;46.308;4.600;2023-06-22T02:06:30;18.75;;;8.02;;
30543;SDS011;43388;46.308;4.600;2023-06-22T02:09:00;13.05;;;6.95;;
30543;SDS011;43388;46.308;4.600;2023-06-22T02:11:27;16.33;;;7.75;;
30543;SDS011;43388;46.308;4.600;2023-06-22T02:13:54;14.60;;;7.53;;
30543;SDS011;43388;46.308;4.600;2023-06-22T02:16:21;10.95;;;7.55;;
30543;SDS011;43388;46.308;4.600;2023-06-22T02:18:48;13.40;;;6.90;;
30543;SDS011;43388;46.308;4.600;2023-06-22T02:21:18;9.38;;;5.93;;
30543;SDS011;43388;46.308;4.600;2023-06-22T02:23:44;9.73;;;6.40;;
30543;SDS011;43388;46.308;4.600;2023-06-22T02:26:10;11.50;;;6.22;;
30543;SDS011;43388;46.308;4.600;2023-06-22T02:28:36;9.07;;;6.03;;
30543;SDS011;43388;46.308;4.600;2023-06-22T02:31:02;9.60;;;6.28;;
30543;SDS011;43388;46.308;4.600;2023-06-22T02:33:28;10.45;;;7.35;;
30543;SDS011;43388;46.308;4.600;2023-06-22T02:35:54;10.75;;;6.75;;
30543;SDS011;43388;46.308;4.600;2023-06-22T02:38:20;9.27;;;6.70;;
30543;SDS011;43388;46.308;4.600;2023-06-22T02:40:46;11.15;;;7.47;;
30543;SDS011;43388;46.308;4.600;2023-06-22T02:43:12;12.00;;;6.53;;
30543;SDS011;43388;46.308;4.600;2023-06-22T02:45:38;13.70;;;7.35;;
30543;SDS011;43388;46.308;4.600;2023-06-22T02:48:04;11.90;;;7.40;;
30543;SDS011;43388;46.308;4.600;2023-06-22T02:50:30;8.98;;;6.35;;
30543;SDS011;43388;46.308;4.600;2023-06-22T02:52:56;11.40;;;6.95;;
30543;SDS011;43388;46.308;4.600;2023-06-22T02:55:23;10.70;;;7.10;;
30543;SDS011;43388;46.308;4.600;2023-06-22T02:57:49;11.63;;;7.15;;
30543;SDS011;43388;46.308;4.600;2023-06-22T03:00:17;12.13;;;7.05;;
30543;SDS011;43388;46.308;4.600;2023-06-22T03:02:44;10.60;;;6.35;;
30543;SDS011;43388;46.308;4.600;2023-06-22T03:05:11;10.48;;;6.78;;
30543;SDS011;43388;46.308;4.600;2023-06-22T03:07:41;16.00;;;7.18;;
30543;SDS011;43388;46.308;4.600;2023-06-22T03:10:08;12.63;;;7.90;;
30543;SDS011;43388;46.308;4.600;2023-06-22T03:12:34;12.98;;;7.45;;
30543;SDS011;43388;46.308;4.600;2023-06-22T03:15:00;15.20;;;7.38;;
30543;SDS011;43388;46.308;4.600;2023-06-22T03:17:26;16.77;;;7.72;;
30543;SDS011;43388;46.308;4.600;2023-06-22T03:19:52;15.35;;;8.27;;
30543;SDS011;43388;46.308;4.600;2023-06-22T03:22:19;14.48;;;7.70;;
30543;SDS011;43388;46.308;4.600;2023-06-22T03:24:46;15.90;;;7.72;;
30543;SDS011;43388;46.308;4.600;2023-06-22T03:27:12;11.98;;;7.50;;
30543;SDS011;43388;46.308;4.600;2023-06-22T03:29:38;15.93;;;7.80;;
30543;SDS011;43388;46.308;4.600;2023-06-22T03:32:04;11.52;;;7.15;;
30543;SDS011;43388;46.308;4.600;2023-06-22T03:34:31;11.43;;;7.07;;
30543;SDS011;43388;46.308;4.600;2023-06-22T03:36:59;11.60;;;7.30;;
30543;SDS011;43388;46.308;4.600;2023-06-22T03:39:25;13.30;;;8.07;;
30543;SDS011;43388;46.308;4.600;2023-06-22T03:41:51;9.43;;;7.15;;
30543;SDS011;43388;46.308;4.600;2023-06-22T03:44:17;10.90;;;7.03;;
30543;SDS011;43388;46.308;4.600;2023-06-22T03:46:43;12.82;;;7.57;;
30543;SDS011;43388;46.308;4.600;2023-06-22T03:49:09;14.98;;;7.80;;
30543;SDS011;43388;46.308;4.600;2023-06-22T03:51:35;12.43;;;8.07;;
30543;SDS011;43388;46.308;4.600;2023-06-22T03:54:01;9.63;;;6.47;;
30543;SDS011;43388;46.308;4.600;2023-06-22T03:56:27;15.45;;;7.07;;
30543;SDS011;43388;46.308;4.600;2023-06-22T03:58:53;15.63;;;7.38;;
30543;SDS011;43388;46.308;4.600;2023-06-22T04:01:19;12.57;;;7.50;;
30543;SDS011;43388;46.308;4.600;2023-06-22T04:03:45;16.42;;;7.55;;
30543;SDS011;43388;46.308;4.600;2023-06-22T04:06:13;13.18;;;8.20;;
30543;SDS011;43388;46.308;4.600;2023-06-22T04:08:39;16.40;;;7.00;;
30543;SDS011;43388;46.308;4.600;2023-06-22T04:11:06;16.33;;;8.10;;
30543;SDS011;43388;46.308;4.600;2023-06-22T04:13:32;10.98;;;7.38;;
30543;SDS011;43388;46.308;4.600;2023-06-22T04:15:58;17.08;;;7.43;;
30543;SDS011;43388;46.308;4.600;2023-06-22T04:18:26;14.65;;;7.43;;
30543;SDS011;43388;46.308;4.600;2023-06-22T04:20:52;18.92;;;7.47;;
30543;SDS011;43388;46.308;4.600;2023-06-22T04:23:18;13.00;;;6.90;;
30543;SDS011;43388;46.308;4.600;2023-06-22T04:25:44;11.43;;;7.00;;
30543;SDS011;43388;46.308;4.600;2023-06-22T04:28:10;13.60;;;6.95;;
30543;SDS011;43388;46.308;4.600;2023-06-22T04:30:37;13.80;;;7.20;;
30543;SDS011;43388;46.308;4.600;2023-06-22T04:33:11;19.50;;;7.65;;
30543;SDS011;43388;46.308;4.600;2023-06-22T04:35:37;10.25;;;6.85;;
30543;SDS011;43388;46.308;4.600;2023-06-22T04:38:06;14.63;;;7.03;;
30543;SDS011;43388;46.308;4.600;2023-06-22T04:40:32;11.50;;;6.20;;
30543;SDS011;43388;46.308;4.600;2023-06-22T04:42:58;14.38;;;6.47;;
30543;SDS011;43388;46.308;4.600;2023-06-22T04:45:27;15.55;;;6.70;;
30543;SDS011;43388;46.308;4.600;2023-06-22T04:47:54;11.05;;;6.32;;
30543;SDS011;43388;46.308;4.600;2023-06-22T04:50:20;11.93;;;6.88;;
30543;SDS011;43388;46.308;4.600;2023-06-22T04:52:47;15.98;;;7.40;;
30543;SDS011;43388;46.308;4.600;2023-06-22T04:55:13;15.23;;;6.50;;
30543;SDS011;43388;46.308;4.600;2023-06-22T04:57:43;12.30;;;6.18;;
30543;SDS011;43388;46.308;4.600;2023-06-22T05:00:13;16.30;;;7.53;;
30543;SDS011;43388;46.308;4.600;2023-06-22T05:02:42;14.43;;;6.28;;
30543;SDS011;43388;46.308;4.600;2023-06-22T05:05:08;11.68;;;5.72;;
30543;SDS011;43388;46.308;4.600;2023-06-22T05:07:38;10.77;;;5.78;;
30543;SDS011;43388;46.308;4.600;2023-06-22T05:10:08;16.08;;;6.53;;
30543;SDS011;43388;46.308;4.600;2023-06-22T05:12:35;11.85;;;5.95;;
30543;SDS011;43388;46.308;4.600;2023-06-22T05:15:01;14.77;;;5.80;;
30543;SDS011;43388;46.308;4.600;2023-06-22T05:17:27;12.20;;;5.47;;
30543;SDS011;43388;46.308;4.600;2023-06-22T05:19:53;12.50;;;5.68;;
30543;SDS011;43388;46.308;4.600;2023-06-22T05:22:20;20.35;;;6.20;;
30543;SDS011;43388;46.308;4.600;2023-06-22T05:24:46;12.60;;;5.55;;
30543;SDS011;43388;46.308;4.600;2023-06-22T05:27:12;14.43;;;5.82;;
30543;SDS011;43388;46.308;4.600;2023-06-22T05:29:39;12.73;;;6.05;;
30543;SDS011;43388;46.308;4.600;2023-06-22T05:32:05;15.93;;;5.97;;
30543;SDS011;43388;46.308;4.600;2023-06-22T05:34:31;14.48;;;5.95;;
30543;SDS011;43388;46.308;4.600;2023-06-22T05:36:58;13.55;;;5.38;;
30543;SDS011;43388;46.308;4.600;2023-06-22T05:39:24;12.50;;;6.00;;
30543;SDS011;43388;46.308;4.600;2023-06-22T05:41:53;14.63;;;5.70;;
30543;SDS011;43388;46.308;4.600;2023-06-22T05:44:19;16.17;;;6.82;;
30543;SDS011;43388;46.308;4.600;2023-06-22T05:46:45;11.75;;;6.20;;
30543;SDS011;43388;46.308;4.600;2023-06-22T05:49:13;12.35;;;6.05;;
30543;SDS011;43388;46.308;4.600;2023-06-22T05:51:39;13.07;;;6.32;;
30543;SDS011;43388;46.308;4.600;2023-06-22T05:54:05;12.00;;;5.78;;
30543;SDS011;43388;46.308;4.600;2023-06-22T05:56:33;11.05;;;6.22;;
30543;SDS011;43388;46.308;4.600;2023-06-22T05:58:59;20.13;;;6.95;;
30543;SDS011;43388;46.308;4.600;2023-06-22T06:01:25;12.45;;;5.80;;
30543;SDS011;43388;46.308;4.600;2023-06-22T06:03:51;13.45;;;5.63;;
30543;SDS011;43388;46.308;4.600;2023-06-22T06:06:17;18.75;;;6.75;;
30543;SDS011;43388;46.308;4.600;2023-06-22T06:08:46;19.92;;;7.05;;
30543;SDS011;43388;46.308;4.600;2023-06-22T06:11:12;18.95;;;6.65;;
30543;SDS011;43388;46.308;4.600;2023-06-22T06:13:38;12.43;;;6.22;;
30543;SDS011;43388;46.308;4.600;2023-06-22T06:16:04;22.15;;;6.32;;
30543;SDS011;43388;46.308;4.600;2023-06-22T06:18:30;15.30;;;6.00;;
30543;SDS011;43388;46.308;4.600;2023-06-22T06:20:56;16.70;;;6.40;;
30543;SDS011;43388;46.308;4.600;2023-06-22T06:23:22;15.50;;;6.57;;
30543;SDS011;43388;46.308;4.600;2023-06-22T06:25:48;18.27;;;6.50;;
30543;SDS011;43388;46.308;4.600;2023-06-22T06:28:14;18.27;;;7.43;;
30543;SDS011;43388;46.308;4.600;2023-06-22T06:30:40;15.48;;;6.72;;
30543;SDS011;43388;46.308;4.600;2023-06-22T06:33:06;16.48;;;6.40;;
30543;SDS011;43388;46.308;4.600;2023-06-22T06:35:33;11.85;;;6.07;;
30543;SDS011;43388;46.308;4.600;2023-06-22T06:38:00;11.02;;;5.55;;
30543;SDS011;43388;46.308;4.600;2023-06-22T06:40:27;12.77;;;6.45;;
30543;SDS011;43388;46.308;4.600;2023-06-22T06:42:53;16.48;;;6.63;;
30543;SDS011;43388;46.308;4.600;2023-06-22T06:45:22;18.45;;;5.53;;
30543;SDS011;43388;46.308;4.600;2023-06-22T06:47:48;10.68;;;6.55;;
30543;SDS011;43388;46.308;4.600;2023-06-22T06:50:15;16.27;;;6.38;;
30543;SDS011;43388;46.308;4.600;2023-06-22T06:52:41;15.70;;;6.20;;
30543;SDS011;43388;46.308;4.600;2023-06-22T06:55:08;16.30;;;6.22;;
30543;SDS011;43388;46.308;4.600;2023-06-22T06:57:37;17.42;;;6.40;;
30543;SDS011;43388;46.308;4.600;2023-06-22T07:00:03;15.70;;;6.80;;
30543;SDS011;43388;46.308;4.600;2023-06-22T07:02:34;13.48;;;6.45;;
30543;SDS011;43388;46.308;4.600;2023-06-22T07:05:00;10.88;;;5.95;;
30543;SDS011;43388;46.308;4.600;2023-06-22T07:07:29;15.98;;;6.15;;
30543;SDS011;43388;46.308;4.600;2023-06-22T07:09:55;12.23;;;6.47;;
30543;SDS011;43388;46.308;4.600;2023-06-22T07:12:21;9.80;;;6.05;;
30543;SDS011;43388;46.308;4.600;2023-06-22T07:14:47;17.95;;;6.28;;
30543;SDS011;43388;46.308;4.600;2023-06-22T07:17:13;17.10;;;6.13;;
30543;SDS011;43388;46.308;4.600;2023-06-22T07:19:39;15.32;;;6.07;;
30543;SDS011;43388;46.308;4.600;2023-06-22T07:22:06;19.13;;;7.05;;
30543;SDS011;43388;46.308;4.600;2023-06-22T07:24:32;12.40;;;6.28;;
30543;SDS011;43388;46.308;4.600;2023-06-22T07:26:58;21.30;;;6.53;;
30543;SDS011;43388;46.308;4.600;2023-06-22T07:29:25;19.58;;;7.20;;
30543;SDS011;43388;46.308;4.600;2023-06-22T07:31:51;19.17;;;7.20;;
30543;SDS011;43388;46.308;4.600;2023-06-22T07:34:18;20.92;;;6.85;;
30543;SDS011;43388;46.308;4.600;2023-06-22T07:36:44;14.65;;;6.97;;
30543;SDS011;43388;46.308;4.600;2023-06-22T07:39:11;19.08;;;7.07;;
30543;SDS011;43388;46.308;4.600;2023-06-22T07:41:38;13.40;;;6.70;;
30543;SDS011;43388;46.308;4.600;2023-06-22T07:44:05;13.18;;;6.65;;
30543;SDS011;43388;46.308;4.600;2023-06-22T07:46:32;16.55;;;6.70;;
30543;SDS011;43388;46.308;4.600;2023-06-22T07:48:58;18.00;;;6.97;;
30543;SDS011;43388;46.308;4.600;2023-06-22T07:51:24;19.48;;;6.75;;
30543;SDS011;43388;46.308;4.600;2023-06-22T07:53:50;18.95;;;7.05;;
30543;SDS011;43388;46.308;4.600;2023-06-22T07:56:16;16.58;;;7.45;;
30543;SDS011;43388;46.308;4.600;2023-06-22T07:58:46;17.00;;;6.97;;
30543;SDS011;43388;46.308;4.600;2023-06-22T08:01:13;27.48;;;8.05;;
30543;SDS011;43388;46.308;4.600;2023-06-22T08:03:39;19.95;;;7.68;;
30543;SDS011;43388;46.308;4.600;2023-06-22T08:06:06;21.30;;;7.80;;
30543;SDS011;43388;46.308;4.600;2023-06-22T08:08:34;17.27;;;7.80;;
30543;SDS011;43388;46.308;4.600;2023-06-22T08:11:00;22.77;;;8.18;;
30543;SDS011;43388;46.308;4.600;2023-06-22T08:13:26;25.80;;;8.02;;
30543;SDS011;43388;46.308;4.600;2023-06-22T08:15:51;23.58;;;7.90;;
30543;SDS011;43388;46.308;4.600;2023-06-22T08:18:17;15.88;;;7.18;;
30543;SDS011;43388;46.308;4.600;2023-06-22T08:20:44;18.13;;;8.05;;
30543;SDS011;43388;46.308;4.600;2023-06-22T08:23:10;14.93;;;7.85;;
30543;SDS011;43388;46.308;4.600;2023-06-22T08:25:36;20.80;;;8.18;;
30543;SDS011;43388;46.308;4.600;2023-06-22T08:28:02;19.65;;;7.82;;
30543;SDS011;43388;46.308;4.600;2023-06-22T08:30:29;20.63;;;7.75;;
30543;SDS011;43388;46.308;4.600;2023-06-22T08:32:55;18.13;;;7.88;;
30543;SDS011;43388;46.308;4.600;2023-06-22T08:35:24;21.55;;;8.30;;
30543;SDS011;43388;46.308;4.600;2023-06-22T08:37:50;14.60;;;7.47;;
30543;SDS011;43388;46.308;4.600;2023-06-22T08:40:22;20.00;;;8.70;;
30543;SDS011;43388;46.308;4.600;2023-06-22T08:42:49;16.02;;;7.85;;
30543;SDS011;43388;46.308;4.600;2023-06-22T08:45:15;19.90;;;7.45;;
30543;SDS011;43388;46.308;4.600;2023-06-22T08:47:41;36.50;;;8.80;;
30543;SDS011;43388;46.308;4.600;2023-06-22T08:50:08;26.90;;;8.63;;
30543;SDS011;43388;46.308;4.600;2023-06-22T08:52:34;41.83;;;13.52;;
30543;SDS011;43388;46.308;4.600;2023-06-22T08:55:00;35.33;;;11.18;;
30543;SDS011;43388;46.308;4.600;2023-06-22T08:57:27;20.10;;;8.68;;
30543;SDS011;43388;46.308;4.600;2023-06-22T08:59:53;20.60;;;8.88;;
30543;SDS011;43388;46.308;4.600;2023-06-22T09:02:23;19.77;;;8.07;;
30543;SDS011;43388;46.308;4.600;2023-06-22T09:04:49;19.25;;;7.82;;
30543;SDS011;43388;46.308;4.600;2023-06-22T09:07:20;17.27;;;8.18;;
30543;SDS011;43388;46.308;4.600;2023-06-22T09:09:47;15.93;;;8.23;;
30543;SDS011;43388;46.308;4.600;2023-06-22T09:12:13;16.27;;;7.45;;
30543;SDS011;43388;46.308;4.600;2023-06-22T09:14:39;16.55;;;8.00;;
30543;SDS011;43388;46.308;4.600;2023-06-22T09:17:05;18.38;;;7.22;;
30543;SDS011;43388;46.308;4.600;2023-06-22T09:19:31;19.45;;;7.00;;
30543;SDS011;43388;46.308;4.600;2023-06-22T09:21:58;20.48;;;7.82;;
30543;SDS011;43388;46.308;4.600;2023-06-22T09:24:24;19.05;;;8.75;;
30543;SDS011;43388;46.308;4.600;2023-06-22T09:26:50;25.00;;;9.02;;
30543;SDS011;43388;46.308;4.600;2023-06-22T09:29:16;13.20;;;8.75;;
30543;SDS011;43388;46.308;4.600;2023-06-22T09:31:42;17.05;;;8.07;;
30543;SDS011;43388;46.308;4.600;2023-06-22T09:34:09;11.00;;;7.38;;
30543;SDS011;43388;46.308;4.600;2023-06-22T09:36:35;15.48;;;6.53;;
30543;SDS011;43388;46.308;4.600;2023-06-22T09:39:01;12.93;;;6.45;;
30543;SDS011;43388;46.308;4.600;2023-06-22T09:41:31;17.33;;;6.53;;
30543;SDS011;43388;46.308;4.600;2023-06-22T09:43:57;15.52;;;8.35;;
30543;SDS011;43388;46.308;4.600;2023-06-22T09:46:23;14.70;;;8.52;;
30543;SDS011;43388;46.308;4.600;2023-06-22T09:48:53;17.67;;;8.43;;
30543;SDS011;43388;46.308;4.600;2023-06-22T09:51:19;12.68;;;7.25;;
30543;SDS011;43388;46.308;4.600;2023-06-22T09:53:46;13.95;;;7.35;;
30543;SDS011;43388;46.308;4.600;2023-06-22T09:56:12;18.02;;;8.02;;
30543;SDS011;43388;46.308;4.600;2023-06-22T09:58:42;17.27;;;7.43;;
30543;SDS011;43388;46.308;4.600;2023-06-22T10:01:08;13.07;;;7.38;;
30543;SDS011;43388;46.308;4.600;2023-06-22T10:03:35;14.82;;;7.63;;
30543;SDS011;43388;46.308;4.600;2023-06-22T10:06:01;11.93;;;7.18;;
30543;SDS011;43388;46.308;4.600;2023-06-22T10:08:27;13.85;;;7.55;;
30543;SDS011;43388;46.308;4.600;2023-06-22T10:10:53;11.23;;;7.13;;
30543;SDS011;43388;46.308;4.600;2023-06-22T10:13:19;13.13;;;7.10;;
30543;SDS011;43388;46.308;4.600;2023-06-22T10:15:45;12.52;;;6.97;;
30543;SDS011;43388;46.308;4.600;2023-06-22T10:18:16;10.25;;;6.68;;
30543;SDS011;43388;46.308;4.600;2023-06-22T10:20:42;12.52;;;7.18;;
30543;SDS011;43388;46.308;4.600;2023-06-22T10:23:08;15.55;;;6.97;;
30543;SDS011;43388;46.308;4.600;2023-06-22T10:25:34;10.15;;;6.40;;
30543;SDS011;43388;46.308;4.600;2023-06-22T10:28:00;11.95;;;6.30;;
30543;SDS011;43388;46.308;4.600;2023-06-22T10:30:26;10.80;;;6.03;;
30543;SDS011;43388;46.308;4.600;2023-06-22T10:32:53;15.80;;;5.82;;
30543;SDS011;43388;46.308;4.600;2023-06-22T10:35:19;11.60;;;5.88;;
30543;SDS011;43388;46.308;4.600;2023-06-22T10:37:46;11.15;;;5.68;;
30543;SDS011;43388;46.308;4.600;2023-06-22T10:40:12;10.95;;;5.70;;
30543;SDS011;43388;46.308;4.600;2023-06-22T10:42:39;7.47;;;5.55;;
30543;SDS011;43388;46.308;4.600;2023-06-22T10:45:05;12.45;;;6.30;;
30543;SDS011;43388;46.308;4.600;2023-06-22T10:47:31;13.88;;;6.68;;
30543;SDS011;43388;46.308;4.600;2023-06-22T10:49:57;10.57;;;6.20;;
30543;SDS011;43388;46.308;4.600;2023-06-22T10:52:23;13.75;;;6.32;;
30543;SDS011;43388;46.308;4.600;2023-06-22T10:54:49;14.13;;;6.47;;
30543;SDS011;43388;46.308;4.600;2023-06-22T10:57:15;16.95;;;7.20;;
30543;SDS011;43388;46.308;4.600;2023-06-22T10:59:41;15.85;;;6.53;;
30543;SDS011;43388;46.308;4.600;2023-06-22T11:02:07;12.75;;;7.45;;
30543;SDS011;43388;46.308;4.600;2023-06-22T11:04:33;14.15;;;6.57;;
30543;SDS011;43388;46.308;4.600;2023-06-22T11:06:59;14.45;;;7.65;;
30543;SDS011;43388;46.308;4.600;2023-06-22T11:09:26;12.63;;;6.15;;
30543;SDS011;43388;46.308;4.600;2023-06-22T11:11:52;11.80;;;6.07;;
30543;SDS011;43388;46.308;4.600;2023-06-22T11:14:18;13.32;;;5.90;;
30543;SDS011;43388;46.308;4.600;2023-06-22T11:16:44;14.70;;;6.55;;
30543;SDS011;43388;46.308;4.600;2023-06-22T11:19:11;10.00;;;5.90;;
30543;SDS011;43388;46.308;4.600;2023-06-22T11:21:37;13.52;;;5.88;;
30543;SDS011;43388;46.308;4.600;2023-06-22T11:24:03;10.20;;;6.68;;
30543;SDS011;43388;46.308;4.600;2023-06-22T11:26:30;15.52;;;6.68;;
30543;SDS011;43388;46.308;4.600;2023-06-22T11:28:56;13.05;;;6.25;;
30543;SDS011;43388;46.308;4.600;2023-06-22T11:31:22;13.05;;;5.60;;
30543;SDS011;43388;46.308;4.600;2023-06-22T11:33:49;12.05;;;6.85;;
30543;SDS011;43388;46.308;4.600;2023-06-22T11:36:15;15.85;;;6.85;;
30543;SDS011;43388;46.308;4.600;2023-06-22T11:38:41;21.85;;;7.00;;
30543;SDS011;43388;46.308;4.600;2023-06-22T11:41:08;12.43;;;6.38;;
30543;SDS011;43388;46.308;4.600;2023-06-22T11:43:34;12.88;;;6.95;;
30543;SDS011;43388;46.308;4.600;2023-06-22T11:46:01;13.48;;;6.30;;
30543;SDS011;43388;46.308;4.600;2023-06-22T11:48:28;13.50;;;7.15;;
30543;SDS011;43388;46.308;4.600;2023-06-22T11:50:54;13.35;;;6.10;;
30543;SDS011;43388;46.308;4.600;2023-06-22T11:53:20;18.63;;;6.90;;
30543;SDS011;43388;46.308;4.600;2023-06-22T11:55:47;13.70;;;6.93;;
30543;SDS011;43388;46.308;4.600;2023-06-22T11:58:14;11.88;;;5.88;;
30543;SDS011;43388;46.308;4.600;2023-06-22T12:00:40;10.43;;;6.40;;
30543;SDS011;43388;46.308;4.600;2023-06-22T12:03:06;11.70;;;6.07;;
30543;SDS011;43388;46.308;4.600;2023-06-22T12:05:33;12.05;;;5.80;;
30543;SDS011;43388;46.308;4.600;2023-06-22T12:07:59;11.80;;;6.80;;
30543;SDS011;43388;46.308;4.600;2023-06-22T12:10:25;16.13;;;6.78;;
30543;SDS011;43388;46.308;4.600;2023-06-22T12:12:53;12.27;;;6.80;;
30543;SDS011;43388;46.308;4.600;2023-06-22T12:15:20;17.50;;;7.32;;
30543;SDS011;43388;46.308;4.600;2023-06-22T12:17:46;15.43;;;6.50;;
30543;SDS011;43388;46.308;4.600;2023-06-22T12:20:13;12.68;;;6.47;;
30543;SDS011;43388;46.308;4.600;2023-06-22T12:22:40;14.93;;;6.75;;
30543;SDS011;43388;46.308;4.600;2023-06-22T12:25:07;14.32;;;7.35;;
30543;SDS011;43388;46.308;4.600;2023-06-22T12:27:33;16.75;;;7.18;;
30543;SDS011;43388;46.308;4.600;2023-06-22T12:29:59;14.60;;;7.00;;
30543;SDS011;43388;46.308;4.600;2023-06-22T12:32:25;12.40;;;6.38;;
30543;SDS011;43388;46.308;4.600;2023-06-22T12:34:51;12.68;;;6.72;;
30543;SDS011;43388;46.308;4.600;2023-06-22T12:37:17;14.68;;;6.32;;
30543;SDS011;43388;46.308;4.600;2023-06-22T12:39:43;16.27;;;6.53;;
30543;SDS011;43388;46.308;4.600;2023-06-22T12:42:09;13.77;;;6.55;;
30543;SDS011;43388;46.308;4.600;2023-06-22T12:44:39;16.10;;;6.80;;
30543;SDS011;43388;46.308;4.600;2023-06-22T12:47:06;11.20;;;6.30;;
30543;SDS011;43388;46.308;4.600;2023-06-22T12:49:33;16.42;;;7.38;;
30543;SDS011;43388;46.308;4.600;2023-06-22T12:52:00;9.23;;;6.30;;
30543;SDS011;43388;46.308;4.600;2023-06-22T12:54:26;14.32;;;6.90;;
30543;SDS011;43388;46.308;4.600;2023-06-22T12:56:53;14.93;;;6.43;;
30543;SDS011;43388;46.308;4.600;2023-06-22T12:59:19;12.98;;;6.55;;
30543;SDS011;43388;46.308;4.600;2023-06-22T13:01:45;12.88;;;6.50;;
30543;SDS011;43388;46.308;4.600;2023-06-22T13:04:11;14.93;;;6.82;;
30543;SDS011;43388;46.308;4.600;2023-06-22T13:06:40;12.48;;;6.10;;
30543;SDS011;43388;46.308;4.600;2023-06-22T13:09:06;15.05;;;6.70;;
30543;SDS011;43388;46.308;4.600;2023-06-22T13:11:32;15.95;;;6.35;;
30543;SDS011;43388;46.308;4.600;2023-06-22T13:13:58;15.55;;;6.63;;
30543;SDS011;43388;46.308;4.600;2023-06-22T13:16:24;14.30;;;6.35;;
30543;SDS011;43388;46.308;4.600;2023-06-22T13:18:50;11.93;;;6.50;;
30543;SDS011;43388;46.308;4.600;2023-06-22T13:21:16;11.52;;;6.40;;
30543;SDS011;43388;46.308;4.600;2023-06-22T13:23:42;14.35;;;5.93;;
30543;SDS011;43388;46.308;4.600;2023-06-22T13:26:08;13.27;;;5.95;;
30543;SDS011;43388;46.308;4.600;2023-06-22T13:28:34;8.60;;;5.82;;
30543;SDS011;43388;46.308;4.600;2023-06-22T13:31:00;13.30;;;6.30;;
30543;SDS011;43388;46.308;4.600;2023-06-22T13:33:26;14.43;;;6.25;;
30543;SDS011;43388;46.308;4.600;2023-06-22T13:35:52;8.70;;;6.47;;
30543;SDS011;43388;46.308;4.600;2023-06-22T13:38:18;15.75;;;6.43;;
30543;SDS011;43388;46.308;4.600;2023-06-22T13:40:44;12.90;;;7.53;;
30543;SDS011;43388;46.308;4.600;2023-06-22T13:43:12;16.45;;;6.10;;
30543;SDS011;43388;46.308;4.600;2023-06-22T13:45:38;14.40;;;7.30;;
30543;SDS011;43388;46.308;4.600;2023-06-22T13:48:04;10.65;;;7.25;;
30543;SDS011;43388;46.308;4.600;2023-06-22T13:50:30;15.23;;;7.97;;
30543;SDS011;43388;46.308;4.600;2023-06-22T13:52:56;11.18;;;7.00;;
30543;SDS011;43388;46.308;4.600;2023-06-22T13:55:22;17.30;;;7.90;;
30543;SDS011;43388;46.308;4.600;2023-06-22T13:57:48;12.77;;;7.93;;
30543;SDS011;43388;46.308;4.600;2023-06-22T14:00:16;13.65;;;7.75;;
30543;SDS011;43388;46.308;4.600;2023-06-22T14:02:42;13.55;;;8.40;;
30543;SDS011;43388;46.308;4.600;2023-06-22T14:05:08;13.40;;;7.93;;
30543;SDS011;43388;46.308;4.600;2023-06-22T14:07:35;15.55;;;7.90;;
30543;SDS011;43388;46.308;4.600;2023-06-22T14:10:02;19.95;;;8.80;;
30543;SDS011;43388;46.308;4.600;2023-06-22T14:12:28;16.98;;;8.18;;
30543;SDS011;43388;46.308;4.600;2023-06-22T14:14:54;13.60;;;8.50;;
30543;SDS011;43388;46.308;4.600;2023-06-22T14:17:21;18.33;;;9.10;;
30543;SDS011;43388;46.308;4.600;2023-06-22T14:19:50;18.50;;;7.88;;
30543;SDS011;43388;46.308;4.600;2023-06-22T14:22:20;20.17;;;7.90;;
30543;SDS011;43388;46.308;4.600;2023-06-22T14:24:50;12.48;;;7.22;;
30543;SDS011;43388;46.308;4.600;2023-06-22T14:27:16;10.63;;;6.70;;
30543;SDS011;43388;46.308;4.600;2023-06-22T14:29:42;13.43;;;7.28;;
30543;SDS011;43388;46.308;4.600;2023-06-22T14:32:09;11.63;;;6.85;;
30543;SDS011;43388;46.308;4.600;2023-06-22T14:34:35;7.82;;;5.18;;
30543;SDS011;43388;46.308;4.600;2023-06-22T14:37:04;7.07;;;4.78;;